Rodney, IA (51051)

7:18 PM CST on December 28, 2014 (GMT -0600)
Castana | Change Station
CLOSE
Current Station
Personal Weather Station
Location: Castana, IA
Elevation: 1099 ft
Nearby Weather Stations

Elev 1099 ft 42.08 °N, 95.89 °W | Updated 14 seconds ago

Mostly Cloudy
Mostly Cloudy
21.0 °F
Feels Like 14 °F
N
4.9
Wind Variable Wind from NE
Gusts 8.0 mph

Today
High -- | Low -- °F
--% Chance of Precip.
Yesterday
High -- | Low -- °F
Precip. -- in
7:51 AM 4:59 PM
First Quarter, 53% visible
Pressure 30.27 in
Visibility 10.0 miles
Clouds Overcast 8500 ft
Windchill 14 °F
Dew Point 18 °F
Humidity 89%
Rainfall 0.00 in
Snow Depth Not available.
UV 0 out of 12
Pollen .10 out of 12
Air Quality Not available.
Flu Activity Not available.
METAR KSUX 290052Z 04005KT 10SM OVC085 M06/M09 A3020 RMK AO2 SLP248 T10611094

More Conditions Fewer Conditions

Pressure 30.27 in
Visibility 10.0 miles
Clouds Overcast 8500 ft
Windchill 14 °F
Dew Point 18 °F
Humidity 89%
Rainfall 0.00 in
Snow Depth Not available.
UV 0 out of 12
Pollen .10 out of 12
Air Quality Not available.
Flu Activity Not available.
METAR KSUX 290052Z 04005KT 10SM OVC085 M06/M09 A3020 RMK AO2 SLP248 T10611094

More Conditions Fewer Conditions

10-Day Weather Forecast

Almanac

Astronomy

Dec. 28, 2014 Rise Set
Actual Time
Civil Twilight
Nautical Twilight
Astronomical Twilight
Moon
Length of Visible Light
Length of Day
Tomorrow will be .
, % of the Moon is Illuminated

Today's Extremes

State Highs State Lows

Community

WunderPhotos

Upload Photos

1,781,482 photos uploaded!

WunderBlogs® & News

Nearby

Air Quality

  Air Quality AQ Index Pollutant
Not available.

Snow Depth

Station Depth Elevation

Earthquake Activity

City Distance Mag. Time & Date
Minimum magnitude displayed is 2.5.

Coastal Water Temperatures

Place Temperature

Nearby Weather Stations